Time;durP1;ratioP1;P1;durP2;ratioP2;P2;SDS_P1;SDS_P2;PMS_P1;PMS_P2;Temp;Humidity;BMP_temperature;BMP_pressure;BME280_temperature;BME280_humidity;BME280_pressure;Samples;Min_cycle;Max_cycle;Signal;HPM_P1;HPM_P2
2022/07/08 00:00:47;;;;;;;10.27;3.08;;;;;;;;;;5038178;28;20441;-77
2022/07/08 00:03:14;;;;;;;11.50;2.92;;;;;;;;;;5036286;28;20442;-77
2022/07/08 00:05:40;;;;;;;10.35;2.95;;;;;;;;;;5038072;28;20513;-77
2022/07/08 00:08:06;;;;;;;14.18;3.78;;;;;;;;;;5035572;28;20431;-76
2022/07/08 00:10:34;;;;;;;10.50;3.30;;;;;;;;;;5038413;28;20440;-77
2022/07/08 00:13:00;;;;;;;13.32;3.17;;;;;;;;;;5036297;28;20943;-77
2022/07/08 00:15:27;;;;;;;13.23;3.20;;;;;;;;;;5034593;28;21036;-77
2022/07/08 00:17:53;;;;;;;11.63;3.13;;;;;;;;;;5035655;28;20427;-77
2022/07/08 00:20:19;;;;;;;10.70;3.10;;;;;;;;;;5037687;28;20438;-77
2022/07/08 00:22:46;;;;;;;11.00;3.00;;;;;;;;;;5053634;22;20432;-73
2022/07/08 00:25:12;;;;;;;11.93;3.00;;;;;;;;;;5036038;28;21020;-73
2022/07/08 00:27:40;;;;;;;15.50;3.53;;;;;;;;;;5036997;28;20801;-73
2022/07/08 00:30:08;;;;;;;10.68;3.10;;;;;;;;;;5036089;28;20427;-73
2022/07/08 00:32:35;;;;;;;15.00;3.38;;;;;;;;;;5033923;28;20413;-73
2022/07/08 00:35:02;;;;;;;10.50;2.80;;;;;;;;;;5017272;28;20447;-73
2022/07/08 00:37:28;;;;;;;10.88;3.22;;;;;;;;;;5017445;28;20435;-73
2022/07/08 00:39:54;;;;;;;12.50;3.35;;;;;;;;;;5018041;28;20928;-73
2022/07/08 00:42:20;;;;;;;14.80;3.22;;;;;;;;;;5016987;28;20422;-73
2022/07/08 00:44:48;;;;;;;11.18;2.95;;;;;;;;;;5015989;28;20918;-73
2022/07/08 00:47:14;;;;;;;11.93;3.85;;;;;;;;;;5018014;28;20435;-73
2022/07/08 00:49:41;;;;;;;10.25;3.13;;;;;;;;;;5018382;28;20896;-73
2022/07/08 00:52:07;;;;;;;11.57;3.05;;;;;;;;;;5017574;28;20545;-73
2022/07/08 00:54:34;;;;;;;14.45;3.80;;;;;;;;;;5019119;28;20430;-73
2022/07/08 00:57:00;;;;;;;10.90;2.80;;;;;;;;;;5017589;28;20416;-73
2022/07/08 00:59:27;;;;;;;8.63;2.90;;;;;;;;;;5018556;28;20411;-75
2022/07/08 01:01:55;;;;;;;12.40;3.40;;;;;;;;;;5017729;28;20424;-75
2022/07/08 01:04:21;;;;;;;13.90;3.13;;;;;;;;;;5018843;28;20772;-75
2022/07/08 01:06:47;;;;;;;12.38;3.00;;;;;;;;;;5017841;28;20439;-75
2022/07/08 01:09:15;;;;;;;10.43;3.33;;;;;;;;;;5018592;28;20768;-74
2022/07/08 01:11:42;;;;;;;10.85;3.00;;;;;;;;;;5018233;28;20944;-75
2022/07/08 01:14:08;;;;;;;17.63;3.40;;;;;;;;;;5018081;28;20415;-75
2022/07/08 01:16:36;;;;;;;9.32;2.85;;;;;;;;;;5016786;28;20957;-75
2022/07/08 01:19:03;;;;;;;12.40;3.15;;;;;;;;;;5017918;28;20428;-75
2022/07/08 01:21:31;;;;;;;13.07;3.22;;;;;;;;;;5018721;28;20437;-75
2022/07/08 01:23:57;;;;;;;9.77;3.07;;;;;;;;;;5016236;28;20435;-75
2022/07/08 01:26:24;;;;;;;13.05;3.30;;;;;;;;;;5017410;28;20431;-75
2022/07/08 01:28:51;;;;;;;11.23;2.70;;;;;;;;;;5016485;28;20429;-75
2022/07/08 01:31:17;;;;;;;14.02;3.35;;;;;;;;;;5017361;28;20433;-75
2022/07/08 01:33:43;;;;;;;12.10;3.00;;;;;;;;;;5017650;28;20442;-75
2022/07/08 01:36:10;;;;;;;12.93;3.20;;;;;;;;;;5017764;28;20806;-75
2022/07/08 01:38:37;;;;;;;12.05;3.35;;;;;;;;;;5016446;28;20431;-75
2022/07/08 01:41:04;;;;;;;11.07;2.80;;;;;;;;;;5017423;28;20434;-75
2022/07/08 01:43:30;;;;;;;8.82;3.10;;;;;;;;;;5016905;28;20431;-75
2022/07/08 01:45:57;;;;;;;12.30;2.88;;;;;;;;;;5017463;28;20435;-75
2022/07/08 01:48:23;;;;;;;14.85;3.20;;;;;;;;;;5017858;28;20432;-75
2022/07/08 01:50:49;;;;;;;10.30;3.05;;;;;;;;;;5018174;28;20430;-74
2022/07/08 01:53:15;;;;;;;13.77;2.83;;;;;;;;;;5016912;28;20431;-75
2022/07/08 01:55:43;;;;;;;11.87;3.40;;;;;;;;;;5018762;28;20453;-75
2022/07/08 01:58:09;;;;;;;13.18;3.08;;;;;;;;;;5020247;28;20436;-74
2022/07/08 02:00:36;;;;;;;11.35;3.20;;;;;;;;;;5019589;28;23417;-75
2022/07/08 02:03:02;;;;;;;13.63;2.70;;;;;;;;;;5020335;28;20424;-75
2022/07/08 02:05:29;;;;;;;8.75;2.70;;;;;;;;;;5020831;28;20431;-75
2022/07/08 02:07:55;;;;;;;8.23;2.47;;;;;;;;;;5020740;28;20427;-75
2022/07/08 02:10:21;;;;;;;13.82;2.70;;;;;;;;;;5020769;28;20807;-75
2022/07/08 02:12:48;;;;;;;12.50;3.00;;;;;;;;;;5020521;28;20430;-75
2022/07/08 02:15:14;;;;;;;7.93;3.20;;;;;;;;;;5020937;28;20994;-75
2022/07/08 02:17:41;;;;;;;9.32;3.28;;;;;;;;;;5020866;28;20919;-75
2022/07/08 02:20:09;;;;;;;10.68;3.05;;;;;;;;;;5022227;28;20907;-75
2022/07/08 02:22:35;;;;;;;10.35;2.70;;;;;;;;;;5020520;28;20490;-75
2022/07/08 02:25:01;;;;;;;16.98;3.22;;;;;;;;;;5020058;28;20463;-75
2022/07/08 02:27:28;;;;;;;8.27;2.60;;;;;;;;;;5020071;28;20526;-75
2022/07/08 02:29:55;;;;;;;9.40;2.65;;;;;;;;;;5020629;28;20426;-75
2022/07/08 02:32:22;;;;;;;8.43;3.10;;;;;;;;;;5021105;28;20492;-75
2022/07/08 02:34:48;;;;;;;14.10;3.20;;;;;;;;;;5021350;28;20433;-75
2022/07/08 02:37:15;;;;;;;10.50;3.13;;;;;;;;;;5019106;28;20419;-75
2022/07/08 02:39:41;;;;;;;11.68;3.13;;;;;;;;;;5021277;28;20435;-75
2022/07/08 02:42:08;;;;;;;14.45;3.80;;;;;;;;;;5021128;28;20427;-75
2022/07/08 02:44:35;;;;;;;9.57;2.75;;;;;;;;;;5021410;28;20454;-75
2022/07/08 02:47:03;;;;;;;7.75;2.70;;;;;;;;;;5019832;28;20926;-75
2022/07/08 02:49:29;;;;;;;13.02;3.00;;;;;;;;;;5019518;28;20438;-75
2022/07/08 02:51:55;;;;;;;14.38;2.97;;;;;;;;;;5019963;28;20934;-75
2022/07/08 02:54:21;;;;;;;9.50;3.30;;;;;;;;;;5020943;28;20439;-75
2022/07/08 02:56:48;;;;;;;10.60;3.50;;;;;;;;;;5019736;28;20437;-75
2022/07/08 02:59:14;;;;;;;10.15;3.65;;;;;;;;;;5021114;28;20436;-75
2022/07/08 03:01:41;;;;;;;14.07;3.10;;;;;;;;;;5017777;28;20912;-75
2022/07/08 03:04:08;;;;;;;13.07;3.20;;;;;;;;;;5021985;28;20444;-75
2022/07/08 03:06:34;;;;;;;10.65;2.92;;;;;;;;;;5019550;28;20431;-75
2022/07/08 03:09:01;;;;;;;11.93;3.28;;;;;;;;;;5020104;28;20482;-75
2022/07/08 03:11:27;;;;;;;10.25;2.70;;;;;;;;;;5019939;28;20428;-75
2022/07/08 03:13:54;;;;;;;10.15;2.88;;;;;;;;;;5019639;28;20429;-75
2022/07/08 03:16:20;;;;;;;13.67;3.23;;;;;;;;;;5020055;28;20415;-75
2022/07/08 03:18:46;;;;;;;10.32;2.72;;;;;;;;;;5018368;28;20434;-75
2022/07/08 03:21:14;;;;;;;12.15;3.30;;;;;;;;;;5018364;28;20443;-75
2022/07/08 03:23:40;;;;;;;11.10;3.35;;;;;;;;;;5020870;28;20419;-75
2022/07/08 03:26:07;;;;;;;10.63;3.08;;;;;;;;;;5019611;28;20436;-75
2022/07/08 03:28:33;;;;;;;10.57;2.80;;;;;;;;;;5018887;28;20431;-75
2022/07/08 03:30:59;;;;;;;15.20;3.70;;;;;;;;;;5019054;28;20439;-74
2022/07/08 03:33:25;;;;;;;10.77;3.50;;;;;;;;;;5019003;28;20455;-75
2022/07/08 03:35:52;;;;;;;9.20;2.65;;;;;;;;;;5018301;28;20445;-75
2022/07/08 03:38:19;;;;;;;11.52;3.75;;;;;;;;;;5020578;28;20505;-74
2022/07/08 03:43:30;;;;;;;10.50;3.30;;;;;;;;;;5018626;28;20921;-75
2022/07/08 03:45:56;;;;;;;12.63;3.38;;;;;;;;;;5017882;28;20438;-75
2022/07/08 03:48:22;;;;;;;16.50;3.80;;;;;;;;;;5019065;28;20423;-75
2022/07/08 03:50:48;;;;;;;13.35;4.10;;;;;;;;;;5019032;28;20790;-74
2022/07/08 03:53:15;;;;;;;11.73;3.40;;;;;;;;;;5018330;28;20427;-75
2022/07/08 03:55:42;;;;;;;17.48;3.58;;;;;;;;;;5019447;28;20439;-75
2022/07/08 03:58:09;;;;;;;10.02;3.08;;;;;;;;;;5018322;28;20430;-75
2022/07/08 04:00:35;;;;;;;11.18;3.55;;;;;;;;;;5019189;28;20435;-75
2022/07/08 04:03:01;;;;;;;10.57;3.60;;;;;;;;;;5017277;28;20432;-75
2022/07/08 04:05:28;;;;;;;13.82;3.30;;;;;;;;;;5019295;28;20439;-75
2022/07/08 04:07:54;;;;;;;9.63;3.35;;;;;;;;;;5028903;28;20419;-75
2022/07/08 04:10:20;;;;;;;9.13;3.33;;;;;;;;;;5038114;28;20447;-75
2022/07/08 04:12:48;;;;;;;11.27;3.25;;;;;;;;;;5038218;28;20426;-75
2022/07/08 04:15:14;;;;;;;9.70;3.60;;;;;;;;;;5037974;28;20431;-75
2022/07/08 04:17:41;;;;;;;13.02;3.25;;;;;;;;;;5027953;28;20420;-75
2022/07/08 04:20:08;;;;;;;11.07;3.03;;;;;;;;;;5018821;28;20439;-75
2022/07/08 04:22:34;;;;;;;11.90;2.88;;;;;;;;;;5018535;28;20424;-74
2022/07/08 04:25:00;;;;;;;14.70;3.47;;;;;;;;;;5017595;28;20460;-75
2022/07/08 04:27:27;;;;;;;11.23;3.80;;;;;;;;;;5015427;28;20430;-74
2022/07/08 04:29:54;;;;;;;17.40;3.90;;;;;;;;;;5014663;28;20431;-75
2022/07/08 04:32:21;;;;;;;14.30;4.25;;;;;;;;;;5018601;28;20433;-74
2022/07/08 04:34:47;;;;;;;12.00;4.07;;;;;;;;;;5017957;28;20435;-74
2022/07/08 04:37:13;;;;;;;16.60;3.60;;;;;;;;;;5017538;28;20431;-75
2022/07/08 04:39:40;;;;;;;14.60;4.50;;;;;;;;;;5017749;28;20909;-75
2022/07/08 04:42:06;;;;;;;14.13;3.90;;;;;;;;;;5017321;28;20419;-75
2022/07/08 04:44:32;;;;;;;12.80;3.30;;;;;;;;;;5018053;28;20510;-75
2022/07/08 04:47:00;;;;;;;11.48;3.10;;;;;;;;;;5015155;28;20428;-75
2022/07/08 04:49:26;;;;;;;11.55;3.10;;;;;;;;;;5019709;28;20437;-76
2022/07/08 04:51:53;;;;;;;9.05;2.65;;;;;;;;;;5016074;28;20421;-75
2022/07/08 04:54:19;;;;;;;11.95;3.13;;;;;;;;;;5019004;28;20427;-75
2022/07/08 04:56:45;;;;;;;11.65;3.33;;;;;;;;;;5014432;28;20447;-75
2022/07/08 04:59:12;;;;;;;7.93;2.83;;;;;;;;;;5017789;28;20435;-75
2022/07/08 05:01:38;;;;;;;11.98;3.10;;;;;;;;;;5017774;28;20606;-74
2022/07/08 05:04:06;;;;;;;9.77;2.80;;;;;;;;;;5017709;28;20964;-74
2022/07/08 05:06:32;;;;;;;9.05;2.40;;;;;;;;;;5018549;28;20426;-75
2022/07/08 05:08:58;;;;;;;10.43;2.60;;;;;;;;;;5017974;28;20847;-75
2022/07/08 05:11:25;;;;;;;9.25;2.75;;;;;;;;;;5016752;28;20448;-75
2022/07/08 05:13:51;;;;;;;8.10;2.60;;;;;;;;;;5017116;28;20417;-75
2022/07/08 05:16:17;;;;;;;10.30;2.70;;;;;;;;;;5017602;28;20485;-75
2022/07/08 05:18:44;;;;;;;12.82;3.20;;;;;;;;;;5016058;28;20427;-74
2022/07/08 05:21:11;;;;;;;14.00;2.80;;;;;;;;;;5018340;28;20778;-75
2022/07/08 05:23:38;;;;;;;12.93;2.80;;;;;;;;;;5017092;28;20429;-74
2022/07/08 05:26:04;;;;;;;13.07;3.38;;;;;;;;;;5017205;28;20435;-74
2022/07/08 05:28:30;;;;;;;10.45;2.92;;;;;;;;;;5016282;28;20436;-74
2022/07/08 05:30:57;;;;;;;11.02;3.50;;;;;;;;;;5018235;28;20459;-75
2022/07/08 05:33:23;;;;;;;8.55;2.90;;;;;;;;;;5020930;28;20931;-75
2022/07/08 05:35:49;;;;;;;9.70;2.40;;;;;;;;;;5021778;28;20433;-75
2022/07/08 05:38:17;;;;;;;12.07;3.80;;;;;;;;;;5020793;28;20509;-75
2022/07/08 05:40:43;;;;;;;10.32;3.10;;;;;;;;;;5022522;28;20420;-75
2022/07/08 05:43:10;;;;;;;11.60;2.90;;;;;;;;;;5021160;28;21003;-75
2022/07/08 05:45:36;;;;;;;9.23;2.92;;;;;;;;;;5021727;28;20412;-75
2022/07/08 05:48:02;;;;;;;11.88;3.10;;;;;;;;;;5020801;28;20421;-75
2022/07/08 05:50:29;;;;;;;13.05;3.10;;;;;;;;;;5021701;28;20423;-75
2022/07/08 05:52:55;;;;;;;11.18;3.08;;;;;;;;;;5020031;28;20447;-75
2022/07/08 05:55:23;;;;;;;12.88;3.20;;;;;;;;;;5021661;28;20430;-75
2022/07/08 05:57:49;;;;;;;9.43;2.97;;;;;;;;;;5019861;28;20442;-75
2022/07/08 06:00:15;;;;;;;14.98;3.20;;;;;;;;;;5021341;28;20797;-75
2022/07/08 06:02:42;;;;;;;13.02;3.10;;;;;;;;;;5020202;28;20513;-75
2022/07/08 06:05:08;;;;;;;13.85;2.90;;;;;;;;;;5020950;28;20427;-75
2022/07/08 06:07:34;;;;;;;9.35;2.78;;;;;;;;;;5021950;28;20945;-75
2022/07/08 06:10:01;;;;;;;10.40;2.60;;;;;;;;;;5020870;28;20443;-75
2022/07/08 06:12:29;;;;;;;13.43;3.50;;;;;;;;;;5022302;28;20426;-75
2022/07/08 06:14:55;;;;;;;11.13;2.70;;;;;;;;;;5021986;28;20432;-75
2022/07/08 06:17:21;;;;;;;10.67;3.10;;;;;;;;;;5021074;28;20799;-75
2022/07/08 06:19:48;;;;;;;10.02;2.63;;;;;;;;;;5021189;28;20415;-75
2022/07/08 06:22:14;;;;;;;10.52;3.10;;;;;;;;;;5020549;28;20415;-75
2022/07/08 06:24:40;;;;;;;11.23;3.22;;;;;;;;;;5027240;22;20452;-76
2022/07/08 06:27:06;;;;;;;13.30;3.67;;;;;;;;;;5003290;28;20430;-76
2022/07/08 06:29:34;;;;;;;10.13;3.10;;;;;;;;;;4991562;28;20418;-77
2022/07/08 06:32:00;;;;;;;13.55;3.15;;;;;;;;;;4989426;28;20433;-76
2022/07/08 06:34:27;;;;;;;9.65;3.25;;;;;;;;;;4984856;28;20506;-77
2022/07/08 06:36:53;;;;;;;8.38;3.22;;;;;;;;;;4982207;28;20944;-77
2022/07/08 06:39:19;;;;;;;12.90;2.90;;;;;;;;;;4981767;28;20431;-77
2022/07/08 06:41:46;;;;;;;10.55;2.83;;;;;;;;;;4979667;28;20458;-76
2022/07/08 06:44:12;;;;;;;17.43;3.47;;;;;;;;;;4976539;28;20440;-76
2022/07/08 06:46:40;;;;;;;8.10;2.53;;;;;;;;;;4981169;28;20453;-76
2022/07/08 06:49:06;;;;;;;11.57;3.20;;;;;;;;;;4981758;28;20424;-77
2022/07/08 06:51:32;;;;;;;12.63;2.90;;;;;;;;;;4981280;28;20418;-77
2022/07/08 06:56:42;;;;;;;7.93;3.00;;;;;;;;;;4998252;28;20408;-76
2022/07/08 06:59:09;;;;;;;6.82;2.78;;;;;;;;;;4978521;28;20436;-76
2022/07/08 07:01:35;;;;;;;13.90;3.10;;;;;;;;;;4980374;28;20419;-77
2022/07/08 07:04:03;;;;;;;7.82;3.28;;;;;;;;;;5000290;28;20416;-77
2022/07/08 07:06:29;;;;;;;7.93;2.80;;;;;;;;;;4998780;28;20529;-77
2022/07/08 07:08:56;;;;;;;13.00;3.22;;;;;;;;;;4999995;28;20420;-77
2022/07/08 07:11:22;;;;;;;10.33;2.90;;;;;;;;;;4998995;28;20437;-77
2022/07/08 07:13:48;;;;;;;14.95;3.65;;;;;;;;;;4981110;28;20434;-76
2022/07/08 07:16:15;;;;;;;12.05;3.05;;;;;;;;;;4977656;28;20447;-76
2022/07/08 07:18:41;;;;;;;12.43;3.55;;;;;;;;;;4978792;28;20427;-77
2022/07/08 07:21:09;;;;;;;11.03;3.43;;;;;;;;;;4980791;28;20423;-77
2022/07/08 07:23:36;;;;;;;13.32;3.13;;;;;;;;;;4979797;28;20424;-77
2022/07/08 07:26:02;;;;;;;17.27;3.28;;;;;;;;;;4979174;28;20440;-76
2022/07/08 07:28:28;;;;;;;8.68;2.97;;;;;;;;;;4979974;28;20416;-76
2022/07/08 07:30:54;;;;;;;14.50;3.25;;;;;;;;;;4978728;28;20799;-77
2022/07/08 07:33:21;;;;;;;11.43;3.53;;;;;;;;;;4979399;28;20922;-77
2022/07/08 07:35:47;;;;;;;13.32;3.60;;;;;;;;;;4979440;28;20439;-77
2022/07/08 07:38:15;;;;;;;17.65;3.60;;;;;;;;;;4979391;28;20432;-77
2022/07/08 07:40:41;;;;;;;16.92;3.70;;;;;;;;;;4978924;28;20436;-77
2022/07/08 07:43:08;;;;;;;8.98;3.10;;;;;;;;;;4979510;28;20431;-77
2022/07/08 07:45:34;;;;;;;7.85;3.00;;;;;;;;;;4979295;28;20813;-77
2022/07/08 07:48:00;;;;;;;14.10;3.20;;;;;;;;;;4978459;28;20426;-77
2022/07/08 07:50:27;;;;;;;15.32;3.92;;;;;;;;;;4980161;28;20533;-77
2022/07/08 07:52:53;;;;;;;8.93;2.92;;;;;;;;;;4979743;28;20430;-77
2022/07/08 07:55:21;;;;;;;16.80;3.60;;;;;;;;;;4978553;28;20470;-77
2022/07/08 07:57:48;;;;;;;13.20;3.50;;;;;;;;;;4978529;28;20426;-77
2022/07/08 08:00:15;;;;;;;14.30;3.60;;;;;;;;;;4978724;28;20511;-77
2022/07/08 08:02:41;;;;;;;13.77;3.20;;;;;;;;;;4974901;28;20428;-77
2022/07/08 08:05:09;;;;;;;14.73;3.40;;;;;;;;;;4976644;28;20438;-77
2022/07/08 08:07:36;;;;;;;11.30;3.30;;;;;;;;;;4979372;28;20426;-77
2022/07/08 08:10:03;;;;;;;16.77;3.10;;;;;;;;;;4978403;28;20449;-77
2022/07/08 08:12:31;;;;;;;11.35;3.40;;;;;;;;;;4979602;28;20433;-77
2022/07/08 08:14:57;;;;;;;15.15;3.40;;;;;;;;;;4976734;28;20439;-77
2022/07/08 08:17:23;;;;;;;8.27;2.80;;;;;;;;;;4978951;28;20431;-77
2022/07/08 08:19:50;;;;;;;11.95;3.60;;;;;;;;;;4977472;28;20442;-77
2022/07/08 08:22:16;;;;;;;14.20;3.60;;;;;;;;;;4979058;28;20920;-78
2022/07/08 08:24:43;;;;;;;13.70;3.10;;;;;;;;;;4978560;28;20436;-77
2022/07/08 08:27:09;;;;;;;12.33;3.93;;;;;;;;;;4978076;28;20424;-77
2022/07/08 08:29:37;;;;;;;9.35;3.30;;;;;;;;;;4978161;28;20434;-77
2022/07/08 08:32:04;;;;;;;14.20;3.50;;;;;;;;;;4977279;28;20431;-77
2022/07/08 08:34:30;;;;;;;14.90;3.45;;;;;;;;;;4978686;28;20440;-77
2022/07/08 08:36:56;;;;;;;11.25;3.30;;;;;;;;;;4976033;28;20881;-76
2022/07/08 08:39:23;;;;;;;9.47;3.50;;;;;;;;;;4975184;28;20436;-77
2022/07/08 08:41:49;;;;;;;12.05;3.67;;;;;;;;;;4979150;28;20431;-77
2022/07/08 08:44:15;;;;;;;16.05;4.20;;;;;;;;;;4978704;28;20468;-77
2022/07/08 08:46:44;;;;;;;12.75;4.25;;;;;;;;;;4979127;28;20414;-77
2022/07/08 08:49:11;;;;;;;11.25;3.40;;;;;;;;;;4977756;28;20428;-77
2022/07/08 08:51:38;;;;;;;14.83;3.90;;;;;;;;;;4978637;28;20467;-77
2022/07/08 08:54:05;;;;;;;12.20;3.70;;;;;;;;;;4978711;28;20447;-77
2022/07/08 08:56:32;;;;;;;13.48;3.53;;;;;;;;;;4975503;28;20444;-77
2022/07/08 08:58:59;;;;;;;12.80;3.42;;;;;;;;;;4979250;28;20414;-77
2022/07/08 09:01:28;;;;;;;10.75;3.90;;;;;;;;;;4978007;28;20439;-77
2022/07/08 09:03:58;;;;;;;12.07;3.45;;;;;;;;;;4977922;28;20506;-77
2022/07/08 09:06:24;;;;;;;8.63;3.20;;;;;;;;;;4978417;28;20437;-77
2022/07/08 09:08:50;;;;;;;12.68;3.40;;;;;;;;;;4979377;28;20955;-77
2022/07/08 09:11:18;;;;;;;9.73;3.60;;;;;;;;;;4973945;28;20448;-77
2022/07/08 09:13:44;;;;;;;15.87;3.83;;;;;;;;;;4978978;28;20474;-77
2022/07/08 09:16:10;;;;;;;8.60;3.20;;;;;;;;;;4978417;28;20432;-77
2022/07/08 09:18:38;;;;;;;10.70;3.20;;;;;;;;;;4978897;28;20425;-77
2022/07/08 09:21:07;;;;;;;10.48;3.38;;;;;;;;;;4975977;28;20442;-76
2022/07/08 09:23:34;;;;;;;11.53;3.80;;;;;;;;;;4978170;28;20560;-77
2022/07/08 09:26:01;;;;;;;11.55;3.88;;;;;;;;;;4977284;28;20438;-77
2022/07/08 09:28:29;;;;;;;9.60;3.30;;;;;;;;;;4976904;28;20436;-77
2022/07/08 09:30:56;;;;;;;9.05;3.03;;;;;;;;;;4977239;28;20440;-77
2022/07/08 09:33:22;;;;;;;11.60;3.55;;;;;;;;;;4977985;28;20424;-77
2022/07/08 09:35:50;;;;;;;9.27;3.00;;;;;;;;;;4978856;28;20438;-77
2022/07/08 09:38:18;;;;;;;14.13;3.90;;;;;;;;;;4977305;28;20516;-76
2022/07/08 09:40:53;;;;;;;8.70;3.40;;;;;;;;;;4976860;28;20434;-77
2022/07/08 09:43:21;;;;;;;12.60;3.10;;;;;;;;;;4977371;28;20428;-77
2022/07/08 09:45:47;;;;;;;8.00;3.20;;;;;;;;;;4975882;28;20458;-77
2022/07/08 09:48:14;;;;;;;9.45;3.20;;;;;;;;;;4976379;28;20439;-76
2022/07/08 09:50:41;;;;;;;10.05;3.60;;;;;;;;;;4976632;28;20953;-77
2022/07/08 09:53:14;;;;;;;8.43;3.20;;;;;;;;;;4975354;28;20776;-77
2022/07/08 09:55:43;;;;;;;10.15;3.50;;;;;;;;;;4975518;28;20985;-77
2022/07/08 09:58:11;;;;;;;10.73;3.40;;;;;;;;;;4976919;28;20918;-77
2022/07/08 10:00:38;;;;;;;11.65;3.70;;;;;;;;;;4978524;28;20428;-77
2022/07/08 10:03:04;;;;;;;8.50;3.10;;;;;;;;;;4973058;28;20447;-77
2022/07/08 10:05:31;;;;;;;14.57;4.20;;;;;;;;;;4977818;28;20437;-76
2022/07/08 10:07:57;;;;;;;11.18;4.00;;;;;;;;;;4977689;28;20796;-76
2022/07/08 10:10:24;;;;;;;9.95;4.10;;;;;;;;;;4978378;28;20429;-77
2022/07/08 10:12:54;;;;;;;8.27;4.18;;;;;;;;;;4976833;28;20422;-77
2022/07/08 10:15:21;;;;;;;7.15;3.70;;;;;;;;;;4979692;28;20447;-77
2022/07/08 10:17:48;;;;;;;6.28;3.95;;;;;;;;;;4979936;28;20440;-76
2022/07/08 10:20:15;;;;;;;9.77;3.95;;;;;;;;;;4980772;28;20497;-77
2022/07/08 10:22:45;;;;;;;11.02;3.83;;;;;;;;;;4981393;28;20431;-77
2022/07/08 10:25:11;;;;;;;5.90;3.25;;;;;;;;;;4979289;28;20447;-77
2022/07/08 10:27:38;;;;;;;6.30;3.28;;;;;;;;;;4978683;28;20787;-76
2022/07/08 10:30:15;;;;;;;8.00;3.17;;;;;;;;;;4979735;28;20785;-77
2022/07/08 10:32:41;;;;;;;6.40;3.58;;;;;;;;;;4979710;28;20848;-77
2022/07/08 10:35:09;;;;;;;8.68;3.00;;;;;;;;;;4977498;28;20428;-77
2022/07/08 10:37:51;;;;;;;6.53;3.00;;;;;;;;;;4979189;28;20472;-77
2022/07/08 10:40:36;;;;;;;6.10;2.90;;;;;;;;;;4980285;28;20436;-77
2022/07/08 10:43:06;;;;;;;6.32;2.70;;;;;;;;;;4991097;28;20429;-76
2022/07/08 10:45:56;;;;;;;8.15;2.92;;;;;;;;;;4999030;28;20434;-76
2022/07/08 10:48:26;;;;;;;9.13;2.95;;;;;;;;;;4984617;28;20423;-77
2022/07/08 10:50:52;;;;;;;8.18;3.00;;;;;;;;;;4978292;28;20438;-77
2022/07/08 10:53:18;;;;;;;6.53;3.00;;;;;;;;;;4994233;28;20445;-77
2022/07/08 10:55:46;;;;;;;7.20;3.30;;;;;;;;;;5000059;28;20921;-77
2022/07/08 10:58:13;;;;;;;5.90;2.60;;;;;;;;;;4986032;28;22641;-77
2022/07/08 11:00:41;;;;;;;6.18;2.65;;;;;;;;;;4980966;28;20437;-77
2022/07/08 11:03:09;;;;;;;6.65;3.10;;;;;;;;;;4978646;28;20433;-77
2022/07/08 11:05:36;;;;;;;7.15;3.80;;;;;;;;;;4980836;28;20434;-76
2022/07/08 11:08:21;;;;;;;8.20;3.65;;;;;;;;;;4977040;28;20420;-76
2022/07/08 11:10:48;;;;;;;7.10;3.50;;;;;;;;;;4980346;28;20418;-77
2022/07/08 11:13:14;;;;;;;12.95;3.63;;;;;;;;;;4976033;28;20799;-76
2022/07/08 11:15:42;;;;;;;9.15;3.70;;;;;;;;;;4980448;28;20430;-76
2022/07/08 11:18:08;;;;;;;8.85;3.90;;;;;;;;;;4979710;28;20426;-76
2022/07/08 11:20:35;;;;;;;9.02;3.90;;;;;;;;;;4980813;28;20433;-77
2022/07/08 11:23:04;;;;;;;7.50;3.60;;;;;;;;;;4976039;28;20430;-77
2022/07/08 11:25:31;;;;;;;7.45;3.88;;;;;;;;;;4980672;28;20783;-77
2022/07/08 11:27:57;;;;;;;9.23;4.57;;;;;;;;;;4978132;28;20432;-77
2022/07/08 11:30:23;;;;;;;8.82;4.45;;;;;;;;;;4978493;28;20446;-77
2022/07/08 11:32:51;;;;;;;7.38;4.00;;;;;;;;;;4977553;28;20440;-76
2022/07/08 11:35:22;;;;;;;13.13;4.68;;;;;;;;;;4979244;28;20501;-77
2022/07/08 11:37:48;;;;;;;11.50;4.00;;;;;;;;;;4978295;28;20527;-77
2022/07/08 11:40:16;;;;;;;10.20;4.57;;;;;;;;;;4978228;28;20436;-77
2022/07/08 11:42:43;;;;;;;13.25;4.00;;;;;;;;;;4977904;28;20457;-77
2022/07/08 11:45:10;;;;;;;12.30;4.88;;;;;;;;;;4979132;28;20438;-77
2022/07/08 11:47:36;;;;;;;11.38;4.60;;;;;;;;;;4977736;28;20444;-77
2022/07/08 11:50:05;;;;;;;12.33;4.50;;;;;;;;;;4979447;28;20420;-76
2022/07/08 11:52:31;;;;;;;6.90;4.10;;;;;;;;;;4976922;28;20930;-77
2022/07/08 11:54:58;;;;;;;7.53;3.80;;;;;;;;;;4978518;28;20447;-77
2022/07/08 11:57:24;;;;;;;11.10;4.55;;;;;;;;;;4975615;28;20504;-77
2022/07/08 11:59:51;;;;;;;10.57;4.43;;;;;;;;;;4979869;28;20438;-77
2022/07/08 12:02:19;;;;;;;11.60;4.80;;;;;;;;;;4976854;28;20431;-76
2022/07/08 12:04:46;;;;;;;9.75;5.00;;;;;;;;;;4979530;28;20481;-77
2022/07/08 12:07:21;;;;;;;8.33;4.80;;;;;;;;;;4977670;28;20803;-77
2022/07/08 12:09:53;;;;;;;11.73;5.10;;;;;;;;;;4979333;28;20430;-77
2022/07/08 12:12:21;;;;;;;9.93;5.10;;;;;;;;;;4976664;28;20418;-77
2022/07/08 12:14:47;;;;;;;11.05;4.95;;;;;;;;;;4979489;28;20422;-77
2022/07/08 12:17:21;;;;;;;11.95;5.10;;;;;;;;;;4979094;28;20456;-77
2022/07/08 12:19:48;;;;;;;9.70;5.63;;;;;;;;;;4978991;28;20448;-77
2022/07/08 12:22:14;;;;;;;13.45;5.13;;;;;;;;;;4979158;28;20416;-77
2022/07/08 12:24:42;;;;;;;9.43;4.70;;;;;;;;;;5016949;22;20440;-75
2022/07/08 12:27:09;;;;;;;10.00;5.10;;;;;;;;;;5016866;28;20426;-75
2022/07/08 12:29:36;;;;;;;9.15;4.80;;;;;;;;;;5016318;28;20428;-75
2022/07/08 12:32:03;;;;;;;10.32;5.10;;;;;;;;;;5017828;28;20500;-75
2022/07/08 12:34:29;;;;;;;10.48;4.97;;;;;;;;;;5018475;28;20760;-75
2022/07/08 12:37:12;;;;;;;13.05;5.38;;;;;;;;;;5017321;28;20416;-75
2022/07/08 12:39:39;;;;;;;9.63;4.80;;;;;;;;;;5017517;28;20444;-75
2022/07/08 12:42:07;;;;;;;7.30;4.65;;;;;;;;;;5017476;28;20411;-75
2022/07/08 12:44:34;;;;;;;12.77;5.10;;;;;;;;;;5017929;28;20424;-75
2022/07/08 12:47:01;;;;;;;7.95;4.60;;;;;;;;;;5016149;28;20427;-75
2022/07/08 12:49:28;;;;;;;7.33;4.40;;;;;;;;;;5016764;28;20800;-75
2022/07/08 12:51:54;;;;;;;8.43;4.57;;;;;;;;;;5017462;28;20419;-75
2022/07/08 12:54:22;;;;;;;9.85;5.05;;;;;;;;;;5016261;28;20472;-75
2022/07/08 12:56:49;;;;;;;7.97;5.23;;;;;;;;;;5017349;28;20427;-75
2022/07/08 12:59:16;;;;;;;9.07;4.57;;;;;;;;;;5016296;28;20937;-75
2022/07/08 13:01:43;;;;;;;9.77;4.80;;;;;;;;;;5016479;28;20437;-75
2022/07/08 13:04:09;;;;;;;10.90;5.53;;;;;;;;;;5016877;28;20418;-75
2022/07/08 13:06:35;;;;;;;9.75;5.20;;;;;;;;;;5017519;28;20413;-75
2022/07/08 13:09:02;;;;;;;12.48;5.10;;;;;;;;;;5015278;28;20428;-75
2022/07/08 13:11:28;;;;;;;11.17;5.10;;;;;;;;;;5018531;28;20426;-75
2022/07/08 13:13:55;;;;;;;12.05;5.00;;;;;;;;;;5017438;28;20415;-75
2022/07/08 13:16:22;;;;;;;16.65;5.88;;;;;;;;;;5016566;28;20934;-75
2022/07/08 13:18:49;;;;;;;11.90;5.30;;;;;;;;;;5014207;28;20425;-75
2022/07/08 13:21:15;;;;;;;10.00;5.07;;;;;;;;;;5015995;28;20416;-75
2022/07/08 13:23:41;;;;;;;10.45;5.20;;;;;;;;;;5015197;28;20432;-75
2022/07/08 13:26:08;;;;;;;7.93;5.03;;;;;;;;;;5017611;28;20415;-75
2022/07/08 13:28:34;;;;;;;14.10;5.70;;;;;;;;;;5016319;28;20449;-75
2022/07/08 13:31:00;;;;;;;9.85;4.90;;;;;;;;;;5017898;28;20425;-75
2022/07/08 13:33:28;;;;;;;9.65;4.20;;;;;;;;;;5014649;28;20848;-75
2022/07/08 13:35:55;;;;;;;11.20;5.22;;;;;;;;;;5017110;28;20427;-75
2022/07/08 13:38:21;;;;;;;12.32;4.93;;;;;;;;;;5015800;28;20479;-75
2022/07/08 13:40:47;;;;;;;11.75;5.80;;;;;;;;;;5017405;28;20517;-75
2022/07/08 13:43:14;;;;;;;13.03;5.00;;;;;;;;;;5014308;28;20439;-75
2022/07/08 13:45:40;;;;;;;10.70;5.63;;;;;;;;;;5017332;28;20420;-76
2022/07/08 13:48:07;;;;;;;10.20;5.10;;;;;;;;;;5016980;28;20435;-75
2022/07/08 13:50:34;;;;;;;9.63;5.50;;;;;;;;;;5017111;28;20453;-75
2022/07/08 13:53:01;;;;;;;12.75;5.05;;;;;;;;;;5018191;28;20419;-75
2022/07/08 13:55:27;;;;;;;5.38;4.22;;;;;;;;;;5018074;28;20437;-75
2022/07/08 13:57:53;;;;;;;12.70;5.32;;;;;;;;;;5018521;28;20444;-75
2022/07/08 14:00:20;;;;;;;11.07;4.70;;;;;;;;;;5021063;28;20421;-75
2022/07/08 14:02:46;;;;;;;8.48;4.00;;;;;;;;;;5020703;28;20417;-75
2022/07/08 14:05:12;;;;;;;11.18;3.90;;;;;;;;;;5020237;28;20428;-75
2022/07/08 14:07:40;;;;;;;9.73;3.90;;;;;;;;;;5016209;28;21148;-75
2022/07/08 14:10:07;;;;;;;5.93;3.30;;;;;;;;;;5019899;28;20799;-76
2022/07/08 14:12:33;;;;;;;11.43;3.30;;;;;;;;;;5020215;28;20424;-76
2022/07/08 14:15:01;;;;;;;7.97;3.13;;;;;;;;;;5019769;28;20420;-75
2022/07/08 14:17:28;;;;;;;7.53;3.10;;;;;;;;;;5019016;28;20434;-76
2022/07/08 14:19:54;;;;;;;6.80;2.60;;;;;;;;;;5020471;28;20417;-75
2022/07/08 14:22:20;;;;;;;4.95;2.20;;;;;;;;;;5014229;28;20470;-75
2022/07/08 14:24:48;;;;;;;7.60;3.17;;;;;;;;;;5008796;28;20427;-76
2022/07/08 14:27:14;;;;;;;5.18;2.80;;;;;;;;;;5014945;28;20421;-76
2022/07/08 14:29:41;;;;;;;5.68;2.42;;;;;;;;;;5018742;28;21009;-75
2022/07/08 14:32:07;;;;;;;5.90;2.80;;;;;;;;;;5018688;28;20944;-75
2022/07/08 14:34:33;;;;;;;7.43;2.50;;;;;;;;;;5019252;28;20504;-75
2022/07/08 14:37:00;;;;;;;7.18;3.00;;;;;;;;;;5016173;28;20754;-75